sensor_id;sensor_type;location;lat;lon;timestamp;pressure;altitude;pressure_sealevel;temperature;humidity
64713;BME280;51140;45.340;5.980;2022-09-30T00:01:36;98119.91;;;6.78;100.00
64713;BME280;51140;45.340;5.980;2022-09-30T00:04:02;98120.66;;;6.81;100.00
64713;BME280;51140;45.340;5.980;2022-09-30T00:06:29;98119.34;;;6.93;100.00
64713;BME280;51140;45.340;5.980;2022-09-30T00:08:55;98125.25;;;6.97;100.00
64713;BME280;51140;45.340;5.980;2022-09-30T00:11:22;98128.63;;;6.99;100.00
64713;BME280;51140;45.340;5.980;2022-09-30T00:13:50;98127.44;;;7.07;100.00
64713;BME280;51140;45.340;5.980;2022-09-30T00:16:15;98138.03;;;7.01;100.00
64713;BME280;51140;45.340;5.980;2022-09-30T00:18:41;98138.19;;;6.97;100.00
64713;BME280;51140;45.340;5.980;2022-09-30T00:21:07;98139.22;;;6.93;100.00
64713;BME280;51140;45.340;5.980;2022-09-30T00:23:33;98132.13;;;6.98;100.00
64713;BME280;51140;45.340;5.980;2022-09-30T00:25:59;98143.09;;;7.04;100.00
64713;BME280;51140;45.340;5.980;2022-09-30T00:28:25;98134.25;;;7.10;100.00
64713;BME280;51140;45.340;5.980;2022-09-30T00:30:51;98134.84;;;7.16;100.00
64713;BME280;51140;45.340;5.980;2022-09-30T00:33:16;98140.16;;;7.13;100.00
64713;BME280;51140;45.340;5.980;2022-09-30T00:35:41;98138.75;;;7.28;100.00
64713;BME280;51140;45.340;5.980;2022-09-30T00:38:06;98150.13;;;7.24;100.00
64713;BME280;51140;45.340;5.980;2022-09-30T00:40:32;98142.66;;;7.38;100.00
64713;BME280;51140;45.340;5.980;2022-09-30T00:42:57;98148.81;;;7.36;100.00
64713;BME280;51140;45.340;5.980;2022-09-30T00:45:25;98153.88;;;7.39;100.00
64713;BME280;51140;45.340;5.980;2022-09-30T00:50:37;98158.81;;;7.45;100.00
64713;BME280;51140;45.340;5.980;2022-09-30T00:55:56;98160.38;;;7.49;100.00
64713;BME280;51140;45.340;5.980;2022-09-30T00:58:30;98159.84;;;7.63;100.00
64713;BME280;51140;45.340;5.980;2022-09-30T01:00:58;98169.38;;;7.62;100.00
64713;BME280;51140;45.340;5.980;2022-09-30T01:03:24;98171.06;;;7.63;100.00
64713;BME280;51140;45.340;5.980;2022-09-30T01:05:49;98177.09;;;7.64;100.00
64713;BME280;51140;45.340;5.980;2022-09-30T01:08:15;98177.63;;;7.72;100.00
64713;BME280;51140;45.340;5.980;2022-09-30T01:10:42;98187.88;;;7.75;100.00
64713;BME280;51140;45.340;5.980;2022-09-30T01:13:07;98182.38;;;7.82;100.00
64713;BME280;51140;45.340;5.980;2022-09-30T01:16:18;98182.25;;;7.85;100.00
64713;BME280;51140;45.340;5.980;2022-09-30T01:18:25;98185.31;;;7.95;100.00
64713;BME280;51140;45.340;5.980;2022-09-30T01:21:35;98173.81;;;8.02;100.00
64713;BME280;51140;45.340;5.980;2022-09-30T01:39:25;98207.50;;;8.24;100.00
64713;BME280;51140;45.340;5.980;2022-09-30T01:44:50;98219.34;;;8.09;100.00
64713;BME280;51140;45.340;5.980;2022-09-30T01:47:18;98220.59;;;8.21;100.00
64713;BME280;51140;45.340;5.980;2022-09-30T01:49:54;98233.44;;;8.24;100.00
64713;BME280;51140;45.340;5.980;2022-09-30T01:55:12;98234.53;;;8.18;100.00
64713;BME280;51140;45.340;5.980;2022-09-30T01:57:44;98245.16;;;8.12;100.00
64713;BME280;51140;45.340;5.980;2022-09-30T02:00:12;98249.44;;;8.13;100.00
64713;BME280;51140;45.340;5.980;2022-09-30T02:02:45;98253.53;;;8.19;100.00
64713;BME280;51140;45.340;5.980;2022-09-30T02:08:12;98265.56;;;8.22;100.00
64713;BME280;51140;45.340;5.980;2022-09-30T02:10:44;98273.47;;;8.18;100.00
64713;BME280;51140;45.340;5.980;2022-09-30T02:13:13;98285.00;;;8.11;100.00
64713;BME280;51140;45.340;5.980;2022-09-30T02:15:42;98277.03;;;8.16;100.00
64713;BME280;51140;45.340;5.980;2022-09-30T02:18:28;98280.53;;;8.15;100.00
64713;BME280;51140;45.340;5.980;2022-09-30T02:20:56;98286.31;;;8.22;100.00
64713;BME280;51140;45.340;5.980;2022-09-30T02:23:28;98288.44;;;8.12;100.00
64713;BME280;51140;45.340;5.980;2022-09-30T02:26:00;98291.44;;;8.23;100.00
64713;BME280;51140;45.340;5.980;2022-09-30T02:28:30;98302.97;;;8.16;100.00
64713;BME280;51140;45.340;5.980;2022-09-30T02:30:56;98303.94;;;8.13;100.00
64713;BME280;51140;45.340;5.980;2022-09-30T02:34:09;98310.09;;;8.11;100.00
64713;BME280;51140;45.340;5.980;2022-09-30T02:36:12;98317.63;;;8.17;100.00
64713;BME280;51140;45.340;5.980;2022-09-30T02:38:41;98330.00;;;8.10;100.00
64713;BME280;51140;45.340;5.980;2022-09-30T02:41:15;98319.75;;;8.07;100.00
64713;BME280;51140;45.340;5.980;2022-09-30T02:43:43;98327.22;;;8.15;100.00
64713;BME280;51140;45.340;5.980;2022-09-30T02:48:44;98329.59;;;7.98;100.00
64713;BME280;51140;45.340;5.980;2022-09-30T02:58:33;98334.41;;;8.08;100.00
64713;BME280;51140;45.340;5.980;2022-09-30T03:01:07;98337.38;;;8.21;100.00
64713;BME280;51140;45.340;5.980;2022-09-30T03:03:44;98343.28;;;8.25;100.00
64713;BME280;51140;45.340;5.980;2022-09-30T03:06:10;98343.28;;;8.25;100.00
64713;BME280;51140;45.340;5.980;2022-09-30T03:08:36;98346.88;;;7.99;100.00
64713;BME280;51140;45.340;5.980;2022-09-30T03:11:01;98360.59;;;7.79;100.00
64713;BME280;51140;45.340;5.980;2022-09-30T03:16:58;98356.31;;;7.78;100.00
64713;BME280;51140;45.340;5.980;2022-09-30T03:21:31;98359.03;;;7.75;100.00
64713;BME280;51140;45.340;5.980;2022-09-30T03:29:00;98356.38;;;7.76;100.00
64713;BME280;51140;45.340;5.980;2022-09-30T03:33:57;98367.34;;;7.60;100.00
64713;BME280;51140;45.340;5.980;2022-09-30T03:41:41;98371.78;;;7.56;100.00
64713;BME280;51140;45.340;5.980;2022-09-30T03:44:17;98356.34;;;7.53;100.00
64713;BME280;51140;45.340;5.980;2022-09-30T03:46:45;98366.59;;;7.56;100.00
64713;BME280;51140;45.340;5.980;2022-09-30T03:49:17;98359.09;;;7.48;100.00
64713;BME280;51140;45.340;5.980;2022-09-30T03:51:44;98366.88;;;7.48;100.00
64713;BME280;51140;45.340;5.980;2022-09-30T03:54:10;98369.69;;;7.42;100.00
64713;BME280;51140;45.340;5.980;2022-09-30T03:56:36;98369.66;;;7.44;100.00
64713;BME280;51140;45.340;5.980;2022-09-30T03:59:18;98378.25;;;7.44;100.00
64713;BME280;51140;45.340;5.980;2022-09-30T04:01:46;98377.19;;;7.50;100.00
64713;BME280;51140;45.340;5.980;2022-09-30T04:04:12;98395.84;;;7.60;100.00
64713;BME280;51140;45.340;5.980;2022-09-30T04:06:37;98395.84;;;7.60;100.00
64713;BME280;51140;45.340;5.980;2022-09-30T04:09:02;98407.97;;;7.59;100.00
64713;BME280;51140;45.340;5.980;2022-09-30T04:11:28;98409.72;;;7.59;100.00
64713;BME280;51140;45.340;5.980;2022-09-30T04:13:53;98421.22;;;7.51;100.00
64713;BME280;51140;45.340;5.980;2022-09-30T04:16:19;98428.47;;;7.42;100.00
64713;BME280;51140;45.340;5.980;2022-09-30T04:18:44;98429.94;;;7.49;100.00
64713;BME280;51140;45.340;5.980;2022-09-30T04:21:10;98432.22;;;7.58;100.00
64713;BME280;51140;45.340;5.980;2022-09-30T04:23:36;98431.63;;;7.50;100.00
64713;BME280;51140;45.340;5.980;2022-09-30T04:26:02;98440.22;;;7.27;100.00
64713;BME280;51140;45.340;5.980;2022-09-30T04:28:27;98443.03;;;7.19;100.00
64713;BME280;51140;45.340;5.980;2022-09-30T04:30:53;98437.22;;;7.13;100.00
64713;BME280;51140;45.340;5.980;2022-09-30T04:33:18;98445.38;;;7.27;100.00
64713;BME280;51140;45.340;5.980;2022-09-30T04:35:43;98439.53;;;7.22;100.00
64713;BME280;51140;45.340;5.980;2022-09-30T04:38:08;98438.09;;;7.38;100.00
64713;BME280;51140;45.340;5.980;2022-09-30T04:40:37;98434.97;;;7.29;100.00
64713;BME280;51140;45.340;5.980;2022-09-30T04:43:03;98435.31;;;7.18;100.00
64713;BME280;51140;45.340;5.980;2022-09-30T04:45:28;98432.13;;;7.10;100.00
64713;BME280;51140;45.340;5.980;2022-09-30T04:47:54;98426.78;;;7.14;100.00
64713;BME280;51140;45.340;5.980;2022-09-30T04:50:19;98426.34;;;7.28;100.00
64713;BME280;51140;45.340;5.980;2022-09-30T04:52:45;98431.59;;;7.27;100.00
64713;BME280;51140;45.340;5.980;2022-09-30T04:55:10;98429.31;;;7.42;100.00
64713;BME280;51140;45.340;5.980;2022-09-30T04:57:35;98429.09;;;7.48;100.00
64713;BME280;51140;45.340;5.980;2022-09-30T05:00:02;98438.22;;;7.59;100.00
64713;BME280;51140;45.340;5.980;2022-09-30T05:02:27;98445.97;;;7.60;100.00
64713;BME280;51140;45.340;5.980;2022-09-30T05:04:52;98449.25;;;7.40;100.00
64713;BME280;51140;45.340;5.980;2022-09-30T05:07:19;98450.78;;;7.46;100.00
64713;BME280;51140;45.340;5.980;2022-09-30T05:09:45;98452.38;;;7.50;100.00
64713;BME280;51140;45.340;5.980;2022-09-30T05:12:10;98454.13;;;7.49;100.00
64713;BME280;51140;45.340;5.980;2022-09-30T05:14:36;98466.06;;;7.53;100.00
64713;BME280;51140;45.340;5.980;2022-09-30T05:17:01;98473.44;;;7.66;100.00
64713;BME280;51140;45.340;5.980;2022-09-30T05:19:26;98475.94;;;7.69;100.00
64713;BME280;51140;45.340;5.980;2022-09-30T05:21:52;98483.72;;;7.69;100.00
64713;BME280;51140;45.340;5.980;2022-09-30T05:24:17;98481.56;;;7.55;100.00
64713;BME280;51140;45.340;5.980;2022-09-30T05:26:42;98485.63;;;7.64;100.00
64713;BME280;51140;45.340;5.980;2022-09-30T05:29:08;98482.22;;;7.62;100.00
64713;BME280;51140;45.340;5.980;2022-09-30T05:31:33;98483.13;;;7.61;100.00
64713;BME280;51140;45.340;5.980;2022-09-30T05:33:59;98495.44;;;7.79;100.00
64713;BME280;51140;45.340;5.980;2022-09-30T05:36:24;98495.00;;;7.91;100.00
64713;BME280;51140;45.340;5.980;2022-09-30T05:38:50;98500.28;;;7.65;100.00
64713;BME280;51140;45.340;5.980;2022-09-30T05:41:16;98500.13;;;7.69;100.00
64713;BME280;51140;45.340;5.980;2022-09-30T05:43:43;98499.06;;;7.75;100.00
64713;BME280;51140;45.340;5.980;2022-09-30T05:46:09;98512.16;;;7.95;100.00
64713;BME280;51140;45.340;5.980;2022-09-30T05:48:35;98524.97;;;8.00;100.00
64713;BME280;51140;45.340;5.980;2022-09-30T05:51:00;98533.56;;;7.77;100.00
64713;BME280;51140;45.340;5.980;2022-09-30T05:53:26;98538.63;;;7.80;100.00
64713;BME280;51140;45.340;5.980;2022-09-30T05:55:52;98540.50;;;7.76;100.00
64713;BME280;51140;45.340;5.980;2022-09-30T05:58:18;98542.28;;;7.74;100.00
64713;BME280;51140;45.340;5.980;2022-09-30T06:00:44;98551.13;;;7.69;100.00
64713;BME280;51140;45.340;5.980;2022-09-30T06:03:10;98552.81;;;7.70;100.00
64713;BME280;51140;45.340;5.980;2022-09-30T06:05:36;98552.44;;;7.80;100.00
64713;BME280;51140;45.340;5.980;2022-09-30T06:08:01;98557.38;;;7.88;100.00
64713;BME280;51140;45.340;5.980;2022-09-30T06:10:27;98560.72;;;7.92;100.00
64713;BME280;51140;45.340;5.980;2022-09-30T06:12:52;98563.69;;;8.06;100.00
64713;BME280;51140;45.340;5.980;2022-09-30T06:15:17;98562.97;;;8.26;100.00
64713;BME280;51140;45.340;5.980;2022-09-30T06:17:42;98570.72;;;8.27;100.00
64713;BME280;51140;45.340;5.980;2022-09-30T06:20:08;98569.56;;;8.36;100.00
64713;BME280;51140;45.340;5.980;2022-09-30T06:22:34;98580.53;;;8.44;100.00
64713;BME280;51140;45.340;5.980;2022-09-30T06:25:03;98591.59;;;8.49;100.00
64713;BME280;51140;45.340;5.980;2022-09-30T06:27:28;98595.50;;;8.61;100.00
64713;BME280;51140;45.340;5.980;2022-09-30T06:29:53;98605.66;;;8.67;100.00
64713;BME280;51140;45.340;5.980;2022-09-30T06:32:18;98606.50;;;8.44;100.00
64713;BME280;51140;45.340;5.980;2022-09-30T06:34:44;98606.00;;;8.58;100.00
64713;BME280;51140;45.340;5.980;2022-09-30T06:37:09;98613.56;;;8.64;100.00
64713;BME280;51140;45.340;5.980;2022-09-30T06:39:37;98620.16;;;8.72;100.00
64713;BME280;51140;45.340;5.980;2022-09-30T06:42:02;98621.38;;;8.87;100.00
64713;BME280;51140;45.340;5.980;2022-09-30T06:44:28;98626.38;;;8.92;100.00
64713;BME280;51140;45.340;5.980;2022-09-30T06:46:53;98630.66;;;9.16;100.00
64713;BME280;51140;45.340;5.980;2022-09-30T06:49:19;98646.69;;;9.27;100.00
64713;BME280;51140;45.340;5.980;2022-09-30T06:51:45;98662.56;;;9.65;100.00
64713;BME280;51140;45.340;5.980;2022-09-30T06:54:10;98669.25;;;9.49;100.00
64713;BME280;51140;45.340;5.980;2022-09-30T06:56:35;98672.06;;;9.66;100.00
64713;BME280;51140;45.340;5.980;2022-09-30T06:59:01;98695.78;;;10.00;100.00
64713;BME280;51140;45.340;5.980;2022-09-30T07:01:26;98689.75;;;10.00;100.00
64713;BME280;51140;45.340;5.980;2022-09-30T07:03:52;98701.19;;;9.96;100.00
64713;BME280;51140;45.340;5.980;2022-09-30T07:06:22;98691.00;;;9.69;100.00
64713;BME280;51140;45.340;5.980;2022-09-30T07:08:47;98689.34;;;9.45;100.00
64713;BME280;51140;45.340;5.980;2022-09-30T07:11:12;98686.06;;;9.40;100.00
64713;BME280;51140;45.340;5.980;2022-09-30T07:13:44;98687.09;;;9.58;100.00
64713;BME280;51140;45.340;5.980;2022-09-30T07:16:10;98678.31;;;9.60;100.00
64713;BME280;51140;45.340;5.980;2022-09-30T07:18:36;98678.56;;;9.32;100.00
64713;BME280;51140;45.340;5.980;2022-09-30T07:21:01;98679.28;;;9.36;100.00
64713;BME280;51140;45.340;5.980;2022-09-30T07:23:27;98681.72;;;9.40;100.00
64713;BME280;51140;45.340;5.980;2022-09-30T07:25:53;98684.75;;;9.52;100.00
64713;BME280;51140;45.340;5.980;2022-09-30T07:28:19;98686.25;;;9.35;100.00
64713;BME280;51140;45.340;5.980;2022-09-30T07:30:45;98695.06;;;9.31;100.00
64713;BME280;51140;45.340;5.980;2022-09-30T07:33:11;98696.88;;;9.29;100.00
64713;BME280;51140;45.340;5.980;2022-09-30T07:35:40;98701.00;;;9.35;100.00
64713;BME280;51140;45.340;5.980;2022-09-30T07:38:08;98713.28;;;9.31;100.00
64713;BME280;51140;45.340;5.980;2022-09-30T07:40:33;98721.91;;;9.32;100.00
64713;BME280;51140;45.340;5.980;2022-09-30T07:42:58;98716.91;;;9.49;100.00
64713;BME280;51140;45.340;5.980;2022-09-30T07:45:24;98719.69;;;9.45;100.00
64713;BME280;51140;45.340;5.980;2022-09-30T07:47:49;98725.69;;;9.47;100.00
64713;BME280;51140;45.340;5.980;2022-09-30T07:50:16;98716.97;;;9.48;100.00
64713;BME280;51140;45.340;5.980;2022-09-30T07:52:41;98717.75;;;9.28;100.00
64713;BME280;51140;45.340;5.980;2022-09-30T07:55:06;98730.31;;;9.38;100.00
64713;BME280;51140;45.340;5.980;2022-09-30T07:57:32;98728.56;;;9.39;100.00
64713;BME280;51140;45.340;5.980;2022-09-30T07:59:57;98725.31;;;9.56;100.00
64713;BME280;51140;45.340;5.980;2022-09-30T08:02:22;98725.34;;;9.32;100.00
64713;BME280;51140;45.340;5.980;2022-09-30T08:04:48;98722.16;;;9.26;100.00
64713;BME280;51140;45.340;5.980;2022-09-30T08:07:14;98726.81;;;9.39;100.00
64713;BME280;51140;45.340;5.980;2022-09-30T08:09:40;98721.47;;;9.88;100.00
64713;BME280;51140;45.340;5.980;2022-09-30T08:12:05;98706.00;;;9.85;100.00
64713;BME280;51140;45.340;5.980;2022-09-30T08:14:30;98716.72;;;9.77;100.00
64713;BME280;51140;45.340;5.980;2022-09-30T08:16:55;98708.97;;;9.76;100.00
64713;BME280;51140;45.340;5.980;2022-09-30T08:19:23;98705.69;;;9.70;100.00
64713;BME280;51140;45.340;5.980;2022-09-30T08:21:49;98702.97;;;9.73;100.00
64713;BME280;51140;45.340;5.980;2022-09-30T08:24:14;98713.78;;;10.07;100.00
64713;BME280;51140;45.340;5.980;2022-09-30T08:26:40;98694.53;;;10.11;100.00
64713;BME280;51140;45.340;5.980;2022-09-30T08:29:05;98671.38;;;10.04;100.00
64713;BME280;51140;45.340;5.980;2022-09-30T08:31:31;98661.53;;;10.11;100.00
64713;BME280;51140;45.340;5.980;2022-09-30T08:33:57;98683.28;;;10.10;100.00
64713;BME280;51140;45.340;5.980;2022-09-30T08:36:23;98684.69;;;10.39;100.00
64713;BME280;51140;45.340;5.980;2022-09-30T08:38:49;98678.38;;;10.24;100.00
64713;BME280;51140;45.340;5.980;2022-09-30T08:46:10;98697.28;;;9.86;100.00
64713;BME280;51140;45.340;5.980;2022-09-30T08:49:00;98706.19;;;10.44;100.00
64713;BME280;51140;45.340;5.980;2022-09-30T08:51:30;98692.66;;;10.14;100.00
64713;BME280;51140;45.340;5.980;2022-09-30T08:53:58;98695.50;;;10.30;100.00
64713;BME280;51140;45.340;5.980;2022-09-30T08:56:25;98692.44;;;10.61;100.00
64713;BME280;51140;45.340;5.980;2022-09-30T08:58:53;98673.44;;;10.98;100.00
64713;BME280;51140;45.340;5.980;2022-09-30T09:01:40;98634.31;;;11.17;100.00
64713;BME280;51140;45.340;5.980;2022-09-30T09:04:06;98591.97;;;11.12;100.00
64713;BME280;51140;45.340;5.980;2022-09-30T09:09:11;98537.78;;;11.18;100.00
64713;BME280;51140;45.340;5.980;2022-09-30T09:14:27;98503.75;;;11.56;100.00
64713;BME280;51140;45.340;5.980;2022-09-30T09:17:04;98452.66;;;11.86;100.00
64713;BME280;51140;45.340;5.980;2022-09-30T09:19:36;98368.41;;;12.16;100.00
64713;BME280;51140;45.340;5.980;2022-09-30T09:22:02;98314.47;;;12.76;100.00
64713;BME280;51140;45.340;5.980;2022-09-30T09:27:08;98157.56;;;13.21;100.00
64713;BME280;51140;45.340;5.980;2022-09-30T09:32:11;98031.44;;;12.17;100.00
64713;BME280;51140;45.340;5.980;2022-09-30T09:34:38;98028.94;;;12.59;100.00
64713;BME280;51140;45.340;5.980;2022-09-30T09:46:32;98002.69;;;13.15;100.00
64713;BME280;51140;45.340;5.980;2022-09-30T09:48:37;97960.47;;;13.61;100.00
64713;BME280;51140;45.340;5.980;2022-09-30T09:53:44;97937.25;;;13.69;100.00
64713;BME280;51140;45.340;5.980;2022-09-30T09:56:13;97934.00;;;13.78;100.00
64713;BME280;51140;45.340;5.980;2022-09-30T10:01:28;97843.22;;;14.89;100.00
64713;BME280;51140;45.340;5.980;2022-09-30T10:04:07;97773.91;;;14.45;100.00
64713;BME280;51140;45.340;5.980;2022-09-30T10:09:35;97858.06;;;13.78;100.00
64713;BME280;51140;45.340;5.980;2022-09-30T10:14:30;97912.81;;;13.16;100.00
64713;BME280;51140;45.340;5.980;2022-09-30T10:17:03;97956.06;;;12.95;100.00
64713;BME280;51140;45.340;5.980;2022-09-30T10:19:29;98029.28;;;12.95;100.00
64713;BME280;51140;45.340;5.980;2022-09-30T10:22:17;98057.84;;;12.70;100.00
64713;BME280;51140;45.340;5.980;2022-09-30T10:24:41;98077.34;;;13.07;100.00
64713;BME280;51140;45.340;5.980;2022-09-30T10:29:51;98115.56;;;12.52;100.00
64713;BME280;51140;45.340;5.980;2022-09-30T10:32:16;98095.94;;;12.60;100.00
64713;BME280;51140;45.340;5.980;2022-09-30T10:34:41;98086.34;;;12.60;100.00
64713;BME280;51140;45.340;5.980;2022-09-30T10:37:15;98076.41;;;13.49;100.00
64713;BME280;51140;45.340;5.980;2022-09-30T10:39:41;98036.16;;;14.42;100.00
64713;BME280;51140;45.340;5.980;2022-09-30T10:45:40;97807.72;;;14.72;100.00
64713;BME280;51140;45.340;5.980;2022-09-30T10:47:34;97787.97;;;14.79;100.00
64713;BME280;51140;45.340;5.980;2022-09-30T10:50:07;97772.44;;;14.41;100.00
64713;BME280;51140;45.340;5.980;2022-09-30T10:52:40;97826.81;;;14.50;100.00
64713;BME280;51140;45.340;5.980;2022-09-30T10:57:47;97820.03;;;14.48;100.00
64713;BME280;51140;45.340;5.980;2022-09-30T11:00:13;97792.44;;;14.66;100.00
64713;BME280;51140;45.340;5.980;2022-09-30T11:02:44;97772.44;;;14.65;100.00
64713;BME280;51140;45.340;5.980;2022-09-30T11:07:41;97768.41;;;14.72;100.00
64713;BME280;51140;45.340;5.980;2022-09-30T11:13:12;97866.50;;;15.04;100.00
64713;BME280;51140;45.340;5.980;2022-09-30T11:18:33;97952.75;;;14.85;100.00
64713;BME280;51140;45.340;5.980;2022-09-30T11:21:01;98002.34;;;14.88;100.00
64713;BME280;51140;45.340;5.980;2022-09-30T11:23:35;97974.44;;;14.87;100.00
64713;BME280;51140;45.340;5.980;2022-09-30T11:26:16;97974.50;;;14.98;100.00
64713;BME280;51140;45.340;5.980;2022-09-30T11:31:35;97932.25;;;14.90;100.00
64713;BME280;51140;45.340;5.980;2022-09-30T11:34:08;97900.81;;;15.25;100.00
64713;BME280;51140;45.340;5.980;2022-09-30T11:39:19;97841.88;;;15.76;100.00
64713;BME280;51140;45.340;5.980;2022-09-30T11:41:59;97787.56;;;15.65;100.00
64713;BME280;51140;45.340;5.980;2022-09-30T11:44:32;97753.94;;;15.13;100.00
64713;BME280;51140;45.340;5.980;2022-09-30T11:57:13;97782.88;;;14.89;100.00
64713;BME280;51140;45.340;5.980;2022-09-30T12:02:12;97721.75;;;15.11;100.00
64713;BME280;51140;45.340;5.980;2022-09-30T12:04:43;97731.78;;;15.05;100.00
64713;BME280;51140;45.340;5.980;2022-09-30T12:07:18;97711.16;;;15.34;100.00
64713;BME280;51140;45.340;5.980;2022-09-30T12:09:47;97693.53;;;15.25;100.00
64713;BME280;51140;45.340;5.980;2022-09-30T12:12:15;97670.94;;;15.45;100.00
64713;BME280;51140;45.340;5.980;2022-09-30T12:17:59;97632.69;;;15.09;100.00
64713;BME280;51140;45.340;5.980;2022-09-30T12:20:02;97682.88;;;15.72;100.00
64713;BME280;51140;45.340;5.980;2022-09-30T12:22:30;97604.78;;;15.85;100.00
64713;BME280;51140;45.340;5.980;2022-09-30T12:24:57;97578.16;;;16.10;100.00
64713;BME280;51140;45.340;5.980;2022-09-30T12:29:50;97470.47;;;16.71;100.00
64713;BME280;51140;45.340;5.980;2022-09-30T12:43:03;97502.97;;;15.45;100.00
64713;BME280;51140;45.340;5.980;2022-09-30T12:48:19;97525.38;;;15.60;100.00
64713;BME280;51140;45.340;5.980;2022-09-30T12:50:52;97499.22;;;16.12;100.00
64713;BME280;51140;45.340;5.980;2022-09-30T12:53:24;97516.91;;;16.40;100.00
64713;BME280;51140;45.340;5.980;2022-09-30T12:55:50;97430.50;;;16.16;100.00
64713;BME280;51140;45.340;5.980;2022-09-30T12:58:26;97375.22;;;16.27;100.00
64713;BME280;51140;45.340;5.980;2022-09-30T13:01:14;97412.59;;;16.41;100.00
64713;BME280;51140;45.340;5.980;2022-09-30T13:03:45;97422.69;;;16.66;100.00
64713;BME280;51140;45.340;5.980;2022-09-30T13:06:13;97368.63;;;16.83;100.00
64713;BME280;51140;45.340;5.980;2022-09-30T13:08:43;97356.03;;;16.96;100.00
64713;BME280;51140;45.340;5.980;2022-09-30T13:11:30;97288.78;;;16.24;100.00
64713;BME280;51140;45.340;5.980;2022-09-30T13:25:16;97266.31;;;16.89;100.00
64713;BME280;51140;45.340;5.980;2022-09-30T13:30:32;97366.38;;;17.17;100.00
64713;BME280;51140;45.340;5.980;2022-09-30T13:40:42;97345.19;;;17.38;100.00
64713;BME280;51140;45.340;5.980;2022-09-30T13:43:11;97303.56;;;16.85;100.00
64713;BME280;51140;45.340;5.980;2022-09-30T13:45:38;97333.13;;;16.08;100.00
64713;BME280;51140;45.340;5.980;2022-09-30T13:48:13;97382.38;;;16.16;100.00
64713;BME280;51140;45.340;5.980;2022-09-30T13:50:50;97483.59;;;16.10;100.00
64713;BME280;51140;45.340;5.980;2022-09-30T13:53:33;97532.28;;;16.14;100.00
64713;BME280;51140;45.340;5.980;2022-09-30T13:56:04;97533.56;;;16.20;100.00
64713;BME280;51140;45.340;5.980;2022-09-30T14:09:01;97694.34;;;15.59;100.00
64713;BME280;51140;45.340;5.980;2022-09-30T14:21:51;97698.66;;;15.72;100.00
64713;BME280;51140;45.340;5.980;2022-09-30T14:24:30;97737.53;;;15.44;100.00
64713;BME280;51140;45.340;5.980;2022-09-30T14:27:16;97801.47;;;15.54;100.00
64713;BME280;51140;45.340;5.980;2022-09-30T14:32:16;97879.28;;;15.44;100.00
64713;BME280;51140;45.340;5.980;2022-09-30T14:34:42;97937.75;;;15.57;100.00
64713;BME280;51140;45.340;5.980;2022-09-30T14:37:11;97853.38;;;15.51;100.00
64713;BME280;51140;45.340;5.980;2022-09-30T14:39:38;97957.41;;;15.41;100.00
64713;BME280;51140;45.340;5.980;2022-09-30T14:42:04;97952.72;;;15.09;100.00
64713;BME280;51140;45.340;5.980;2022-09-30T14:44:30;97991.97;;;14.87;100.00
64713;BME280;51140;45.340;5.980;2022-09-30T14:46:57;98041.06;;;14.72;100.00
64713;BME280;51140;45.340;5.980;2022-09-30T14:49:25;98091.22;;;14.55;100.00
64713;BME280;51140;45.340;5.980;2022-09-30T14:51:56;98233.91;;;14.51;100.00
64713;BME280;51140;45.340;5.980;2022-09-30T14:54:25;98258.53;;;14.21;100.00
64713;BME280;51140;45.340;5.980;2022-09-30T14:56:53;98318.25;;;14.16;100.00
64713;BME280;51140;45.340;5.980;2022-09-30T14:59:29;98398.06;;;14.10;100.00
64713;BME280;51140;45.340;5.980;2022-09-30T15:02:15;98409.75;;;13.91;100.00
64713;BME280;51140;45.340;5.980;2022-09-30T15:04:44;98451.03;;;13.57;100.00
64713;BME280;51140;45.340;5.980;2022-09-30T15:07:11;98519.50;;;13.20;100.00
64713;BME280;51140;45.340;5.980;2022-09-30T15:09:37;98596.41;;;13.15;100.00
64713;BME280;51140;45.340;5.980;2022-09-30T15:12:09;98642.75;;;13.13;100.00
64713;BME280;51140;45.340;5.980;2022-09-30T15:14:45;98703.88;;;12.95;100.00
64713;BME280;51140;45.340;5.980;2022-09-30T15:17:56;98723.81;;;12.98;100.00
64713;BME280;51140;45.340;5.980;2022-09-30T15:19:56;98788.31;;;12.80;100.00
64713;BME280;51140;45.340;5.980;2022-09-30T15:22:23;98872.44;;;12.53;100.00
64713;BME280;51140;45.340;5.980;2022-09-30T15:24:50;98947.47;;;12.69;100.00
64713;BME280;51140;45.340;5.980;2022-09-30T15:27:37;98942.09;;;12.91;100.00
64713;BME280;51140;45.340;5.980;2022-09-30T15:30:24;98955.25;;;13.06;100.00
64713;BME280;51140;45.340;5.980;2022-09-30T15:32:47;98895.09;;;13.06;100.00
64713;BME280;51140;45.340;5.980;2022-09-30T15:35:18;98858.19;;;12.95;100.00
64713;BME280;51140;45.340;5.980;2022-09-30T15:37:47;98864.19;;;12.97;100.00
64713;BME280;51140;45.340;5.980;2022-09-30T15:40:20;98818.88;;;12.97;100.00
64713;BME280;51140;45.340;5.980;2022-09-30T15:43:09;98813.63;;;12.62;100.00
64713;BME280;51140;45.340;5.980;2022-09-30T15:45:36;98849.81;;;12.52;100.00
64713;BME280;51140;45.340;5.980;2022-09-30T15:48:08;98839.06;;;12.76;100.00
64713;BME280;51140;45.340;5.980;2022-09-30T15:50:53;98824.34;;;12.92;100.00
64713;BME280;51140;45.340;5.980;2022-09-30T15:55:46;98810.34;;;12.93;100.00
64713;BME280;51140;45.340;5.980;2022-09-30T16:00:50;98839.91;;;12.76;100.00
64713;BME280;51140;45.340;5.980;2022-09-30T16:05:42;98853.97;;;12.57;100.00
64713;BME280;51140;45.340;5.980;2022-09-30T16:08:07;98882.34;;;12.47;100.00
64713;BME280;51140;45.340;5.980;2022-09-30T16:10:36;98927.31;;;12.35;100.00
64713;BME280;51140;45.340;5.980;2022-09-30T16:13:02;98931.66;;;11.97;100.00
64713;BME280;51140;45.340;5.980;2022-09-30T16:15:28;98975.81;;;11.82;100.00
64713;BME280;51140;45.340;5.980;2022-09-30T16:17:54;99013.34;;;11.80;100.00
64713;BME280;51140;45.340;5.980;2022-09-30T16:20:22;99031.00;;;11.93;100.00
64713;BME280;51140;45.340;5.980;2022-09-30T16:22:49;99037.63;;;11.82;100.00